Terminal Aerodrome Forecast
Issued by NWS Charleston, WV

Current Version | Previous Version | Graphics & Text | Print | Product List | Glossary On
Versions: 1 2 3 4 5 6 7 8 9 10 11 12 13 14 15 16 17 18 19 20 21 22 23 24 25
684
FTUS41 KRLX 210529
TAFCRW
TAF
KCRW 210529Z 2106/2206 00000KT 4SM SHRA VCTS OVC035CB
     FM210800 00000KT 5SM SHRA SCT009 OVC020
     FM211100 VRB03KT 3SM BR OVC010
     FM211700 33004KT 6SM BR BKN020
     FM212000 33005KT P6SM BKN045=

USA.gov is the U.S. government's official web portal to all federal, state and local government web resources and services.